Time;durP1;ratioP1;P1;durP2;ratioP2;P2;SDS_P1;SDS_P2;PMS_P1;PMS_P2;Temp;Humidity;BMP_temperature;BMP_pressure;BME280_temperature;BME280_humidity;BME280_pressure;Samples;Min_cycle;Max_cycle;Signal;HPM_P1;HPM_P2
2022/10/22 00:02:20;;;;;;;15.88;10.57;;;13.80;99.90;;;;;;6113894;23;20017;-87
2022/10/22 00:04:53;;;;;;;17.33;10.88;;;13.90;99.90;;;;;;6088977;23;20057;-87
2022/10/22 00:07:22;;;;;;;17.00;11.07;;;13.80;99.90;;;;;;6089545;23;20018;-86
2022/10/22 00:09:55;;;;;;;21.00;11.35;;;13.70;99.90;;;;;;6087131;23;20018;-86
2022/10/22 00:12:27;;;;;;;18.92;10.98;;;13.70;99.90;;;;;;6088392;23;20320;-86
2022/10/22 00:14:55;;;;;;;19.33;10.85;;;13.80;99.90;;;;;;6112939;23;20010;-86
2022/10/22 00:17:24;;;;;;;19.13;10.45;;;13.60;99.90;;;;;;6089500;23;20053;-88
2022/10/22 00:19:59;;;;;;;22.15;11.13;;;13.60;99.90;;;;;;6087707;23;20025;-86
2022/10/22 00:22:25;;;;;;;20.17;11.02;;;13.60;99.90;;;;;;6087705;23;20026;-87
2022/10/22 00:24:51;;;;;;;18.65;10.85;;;13.70;99.90;;;;;;6087623;23;20018;-86
2022/10/22 00:27:20;;;;;;;22.90;11.85;;;13.70;99.90;;;;;;6087343;23;20614;-87
2022/10/22 00:29:45;;;;;;;15.43;10.27;;;13.60;99.90;;;;;;6086725;23;20018;-87
2022/10/22 00:32:11;;;;;;;16.95;10.75;;;13.50;99.90;;;;;;6088466;23;20018;-86
2022/10/22 00:34:37;;;;;;;19.63;11.75;;;13.60;99.90;;;;;;6114251;23;20060;-87
2022/10/22 00:37:29;;;;;;;;;;;13.40;99.90;;;;;;6116808;23;20292;-87
2022/10/22 00:40:03;;;;;;;16.70;10.85;;;13.50;99.90;;;;;;6091181;23;19913;-87
2022/10/22 00:42:32;;;;;;;23.42;11.98;;;13.40;99.90;;;;;;6092025;23;20017;-86
2022/10/22 00:45:27;;;;;;;18.27;10.82;;;13.50;99.90;;;;;;6092026;23;20017;-86
2022/10/22 00:48:10;;;;;;;21.50;11.23;;;13.50;99.90;;;;;;6092670;23;20406;-86
2022/10/22 00:50:50;;;;;;;17.83;11.38;;;13.50;99.90;;;;;;6090225;23;20411;-86
2022/10/22 00:53:31;;;;;;;16.63;11.00;;;13.50;99.90;;;;;;6116213;23;20061;-86
2022/10/22 00:55:57;;;;;;;17.77;11.45;;;13.50;99.90;;;;;;6091115;23;20013;-86
2022/10/22 00:58:32;;;;;;;27.65;11.88;;;13.40;99.90;;;;;;6091874;23;20087;-86
2022/10/22 01:01:20;;;;;;;19.48;12.00;;;13.40;99.90;;;;;;6092408;23;20096;-87
2022/10/22 01:03:51;;;;;;;17.35;11.52;;;13.40;99.90;;;;;;6115676;23;20343;-86
2022/10/22 01:06:39;;;;;;;16.67;10.90;;;13.40;99.90;;;;;;6116501;23;20297;-86
2022/10/22 01:09:40;;;;;;;22.80;11.55;;;13.50;99.90;;;;;;6115344;23;20080;-86
2022/10/22 01:12:33;;;;;;;17.60;11.60;;;13.40;99.90;;;;;;6091563;23;20017;-87
2022/10/22 01:15:14;;;;;;;20.20;11.65;;;13.40;99.90;;;;;;6116234;23;20017;-86
2022/10/22 01:17:53;;;;;;;20.88;12.13;;;13.30;99.90;;;;;;6115411;23;20025;-86
2022/10/22 01:20:37;;;;;;;18.95;11.57;;;13.30;99.90;;;;;;6090840;23;20080;-86
2022/10/22 01:23:40;;;;;;;15.05;11.05;;;13.50;99.90;;;;;;6090373;23;20643;-86
2022/10/22 01:26:14;;;;;;;22.50;11.85;;;13.50;99.90;;;;;;6114750;23;20021;-86
2022/10/22 01:28:49;;;;;;;20.90;11.63;;;13.50;99.90;;;;;;6092676;23;20028;-87
2022/10/22 01:31:19;;;;;;;20.13;11.18;;;13.40;99.90;;;;;;6091056;23;20029;-87
2022/10/22 01:33:47;;;;;;;18.63;11.35;;;13.40;99.90;;;;;;6116209;23;20354;-87
2022/10/22 01:36:19;;;;;;;17.27;11.50;;;13.30;99.90;;;;;;6091502;23;20343;-85
2022/10/22 01:38:50;;;;;;;17.25;10.40;;;13.30;99.90;;;;;;6088963;23;20418;-86
2022/10/22 01:41:16;;;;;;;19.60;11.25;;;13.40;99.90;;;;;;6090119;23;20373;-87
2022/10/22 01:43:42;;;;;;;20.00;11.02;;;13.50;99.90;;;;;;6090761;23;20013;-87
2022/10/22 01:46:10;;;;;;;20.50;11.32;;;13.30;99.90;;;;;;6091483;23;20316;-85
2022/10/22 01:48:51;;;;;;;17.30;11.07;;;13.40;99.90;;;;;;6092274;23;20017;-86
2022/10/22 01:52:00;;;;;;;18.15;10.43;;;13.50;99.90;;;;;;6090975;23;20343;-86
2022/10/22 01:54:43;;;;;;;21.00;10.45;;;13.50;99.90;;;;;;6114656;23;20327;-87
2022/10/22 01:57:11;;;;;;;22.65;11.82;;;13.40;99.90;;;;;;6091035;23;20009;-87
2022/10/22 02:00:10;;;;;;;18.23;11.13;;;13.40;99.90;;;;;;6091038;23;20017;-87
2022/10/22 02:02:42;;;;;;;19.80;11.13;;;13.30;99.90;;;;;;6091227;23;20430;-86
2022/10/22 02:05:17;;;;;;;21.17;11.52;;;13.40;99.90;;;;;;6115223;23;20052;-87
2022/10/22 02:07:49;;;;;;;17.35;11.13;;;13.40;99.90;;;;;;6090749;23;20049;-85
2022/10/22 02:10:30;;;;;;;17.15;11.00;;;13.30;99.90;;;;;;6089124;23;20045;-86
2022/10/22 02:13:29;;;;;;;21.55;11.55;;;13.40;99.90;;;;;;6090737;23;20018;-86
2022/10/22 02:16:02;;;;;;;22.27;11.63;;;13.30;99.90;;;;;;6096379;23;20026;-86
2022/10/22 02:18:45;;;;;;;19.33;11.73;;;13.30;99.90;;;;;;6093174;23;20113;-86
2022/10/22 02:21:13;;;;;;;19.80;11.63;;;13.30;99.90;;;;;;6091204;23;20446;-87
2022/10/22 02:23:45;;;;;;;22.55;12.63;;;13.30;99.90;;;;;;6091135;23;20272;-87
2022/10/22 02:26:32;;;;;;;19.30;12.32;;;13.30;99.90;;;;;;6089795;23;20021;-87
2022/10/22 02:29:42;;;;;;;16.10;11.60;;;13.40;99.90;;;;;;6092568;23;20071;-87
2022/10/22 02:32:23;;;;;;;22.45;11.73;;;13.30;99.90;;;;;;6098954;23;20101;-87
2022/10/22 02:35:00;;;;;;;19.50;12.23;;;13.40;99.90;;;;;;6091188;23;20033;-86
2022/10/22 02:37:27;;;;;;;19.77;11.82;;;13.30;99.90;;;;;;6091590;23;20397;-87
2022/10/22 02:39:55;;;;;;;18.95;12.40;;;13.30;99.90;;;;;;6090058;23;20089;-86
2022/10/22 02:42:23;;;;;;;23.10;13.18;;;13.30;99.90;;;;;;6115662;23;20017;-86
2022/10/22 02:44:54;;;;;;;23.25;13.63;;;13.30;99.90;;;;;;6091944;23;20028;-85
2022/10/22 02:47:20;;;;;;;21.27;12.75;;;13.30;99.90;;;;;;6092050;23;20017;-86
2022/10/22 02:49:45;;;;;;;22.38;12.95;;;13.30;99.90;;;;;;6090569;23;20040;-86
2022/10/22 02:52:21;;;;;;;21.42;12.27;;;13.30;99.90;;;;;;6092226;23;20088;-86
2022/10/22 02:54:49;;;;;;;20.95;12.77;;;13.30;99.90;;;;;;6088907;23;20022;-86
2022/10/22 02:57:29;;;;;;;23.58;12.90;;;13.40;99.90;;;;;;6091918;23;20314;-87
2022/10/22 03:00:00;;;;;;;22.52;12.98;;;13.30;99.90;;;;;;6092430;23;20342;-87
2022/10/22 03:02:26;;;;;;;20.92;13.35;;;13.30;99.90;;;;;;6094428;23;20023;-87
2022/10/22 03:04:52;;;;;;;23.15;13.70;;;13.30;99.90;;;;;;6091481;23;20092;-87
2022/10/22 03:07:20;;;;;;;23.65;13.98;;;13.40;99.90;;;;;;6093128;23;20028;-85
2022/10/22 03:09:48;;;;;;;22.17;13.45;;;13.50;99.90;;;;;;6090140;23;20112;-86
2022/10/22 03:12:29;;;;;;;24.10;13.57;;;13.40;99.90;;;;;;6090859;23;20263;-86
2022/10/22 03:14:57;;;;;;;22.80;13.35;;;13.50;99.90;;;;;;6118093;23;20535;-86
2022/10/22 03:17:34;;;;;;;24.15;14.82;;;13.50;99.90;;;;;;6094322;23;20017;-86
2022/10/22 03:20:03;;;;;;;20.83;13.90;;;13.40;99.90;;;;;;6117052;23;20049;-86
2022/10/22 03:22:40;;;;;;;27.77;14.60;;;13.40;99.90;;;;;;6093565;23;20506;-86
2022/10/22 03:25:23;;;;;;;24.27;13.73;;;13.40;99.90;;;;;;6090987;23;20512;-86
2022/10/22 03:27:54;;;;;;;21.40;13.73;;;13.40;99.90;;;;;;6093305;23;20339;-87
2022/10/22 03:30:26;;;;;;;25.52;14.35;;;13.30;99.90;;;;;;6091761;23;20018;-85
2022/10/22 03:32:52;;;;;;;26.80;13.50;;;13.40;99.90;;;;;;6092035;23;20124;-86
2022/10/22 03:35:21;;;;;;;25.45;13.95;;;13.40;99.90;;;;;;6091800;23;20072;-86
2022/10/22 03:38:01;;;;;;;25.55;13.00;;;13.40;99.90;;;;;;6094762;23;20406;-84
2022/10/22 03:40:42;;;;;;;22.77;13.52;;;13.30;99.90;;;;;;6114350;23;20534;-86
2022/10/22 03:43:13;;;;;;;26.20;13.80;;;13.20;99.90;;;;;;6116518;23;20018;-86
2022/10/22 03:45:41;;;;;;;25.70;13.88;;;13.20;99.90;;;;;;6117208;23;20036;-86
2022/10/22 03:48:07;;;;;;;23.10;12.45;;;13.30;99.90;;;;;;6093600;23;20018;-86
2022/10/22 03:50:32;;;;;;;22.52;13.15;;;13.20;99.90;;;;;;6093819;23;20542;-86
2022/10/22 03:52:58;;;;;;;22.10;13.25;;;13.20;99.90;;;;;;6092615;23;20299;-87
2022/10/22 03:55:29;;;;;;;26.85;14.18;;;13.20;99.90;;;;;;6090570;23;20344;-86
2022/10/22 03:57:54;;;;;;;29.67;14.75;;;13.10;99.90;;;;;;6116556;23;20013;-86
2022/10/22 04:00:23;;;;;;;28.90;14.82;;;13.20;99.90;;;;;;6092734;23;20036;-87
2022/10/22 04:02:48;;;;;;;23.08;14.65;;;13.10;99.90;;;;;;6091505;23;20017;-86
2022/10/22 04:05:14;;;;;;;32.08;14.75;;;13.20;99.90;;;;;;6116718;23;20096;-87
2022/10/22 04:07:43;;;;;;;25.30;14.43;;;13.10;99.90;;;;;;6091946;23;20407;-87
2022/10/22 04:10:14;;;;;;;25.27;14.80;;;13.10;99.90;;;;;;6087738;23;20045;-86
2022/10/22 04:12:47;;;;;;;25.17;15.40;;;13.20;99.90;;;;;;6093195;23;20429;-86
2022/10/22 04:15:37;;;;;;;24.45;15.30;;;13.10;99.90;;;;;;6116225;23;20303;-86
2022/10/22 04:18:09;;;;;;;28.73;15.27;;;13.20;99.90;;;;;;6116123;23;20028;-86
2022/10/22 04:20:37;;;;;;;25.73;15.38;;;13.10;99.90;;;;;;6092218;23;20017;-86
2022/10/22 04:23:06;;;;;;;25.90;15.50;;;13.10;99.90;;;;;;6092736;23;20087;-87
2022/10/22 04:25:33;;;;;;;25.88;15.32;;;13.10;99.90;;;;;;6114556;23;20516;-86
2022/10/22 04:27:59;;;;;;;25.90;15.10;;;13.10;99.90;;;;;;6092356;23;20017;-86
2022/10/22 04:30:42;;;;;;;25.25;15.30;;;13.10;99.90;;;;;;6116788;23;20021;-87
2022/10/22 04:33:13;;;;;;;26.98;15.23;;;13.10;99.90;;;;;;6114147;23;20013;-87
2022/10/22 04:35:47;;;;;;;25.35;15.77;;;13.20;99.90;;;;;;6085348;23;20021;-87
2022/10/22 04:38:17;;;;;;;24.38;16.30;;;13.10;99.90;;;;;;6087161;23;20076;-86
2022/10/22 04:40:57;;;;;;;30.35;15.80;;;13.10;99.90;;;;;;6085386;23;20048;-85
2022/10/22 04:43:34;;;;;;;26.08;16.30;;;13.10;99.90;;;;;;6112875;23;20076;-85
2022/10/22 04:46:05;;;;;;;30.55;16.33;;;13.00;99.90;;;;;;6087730;23;20242;-86
2022/10/22 04:48:40;;;;;;;26.05;15.93;;;13.10;99.90;;;;;;6110799;23;20459;-86
2022/10/22 04:51:15;;;;;;;22.58;14.40;;;13.10;99.90;;;;;;6087727;23;20029;-86
2022/10/22 04:54:07;;;;;;;23.67;16.33;;;13.40;99.90;;;;;;6111519;23;20304;-86
2022/10/22 04:56:38;;;;;;;28.88;16.48;;;13.30;99.90;;;;;;6086999;23;20077;-87
2022/10/22 04:59:07;;;;;;;27.77;16.58;;;13.20;99.90;;;;;;6110383;23;20018;-86
2022/10/22 05:01:39;;;;;;;28.10;16.80;;;13.20;99.90;;;;;;6087988;23;20014;-87
2022/10/22 05:04:06;;;;;;;26.92;16.73;;;13.20;99.90;;;;;;6086187;23;20020;-85
2022/10/22 05:06:39;;;;;;;26.38;16.10;;;13.20;99.90;;;;;;6088462;23;20017;-86
2022/10/22 05:09:14;;;;;;;25.15;15.75;;;13.30;99.90;;;;;;6085657;23;20100;-86
2022/10/22 05:11:47;;;;;;;28.52;16.40;;;13.40;99.90;;;;;;6087612;23;20037;-86
2022/10/22 05:14:16;;;;;;;29.25;15.25;;;13.20;99.90;;;;;;6087497;23;20335;-86
2022/10/22 05:16:42;;;;;;;28.95;16.27;;;13.30;99.90;;;;;;6087500;23;20372;-86
2022/10/22 05:19:25;;;;;;;29.85;16.10;;;13.20;99.90;;;;;;6086165;23;20077;-86
2022/10/22 05:22:02;;;;;;;24.55;16.05;;;13.30;99.90;;;;;;6085264;23;20045;-86
2022/10/22 05:24:34;;;;;;;24.35;15.75;;;13.30;99.90;;;;;;6109958;23;20017;-86
2022/10/22 05:30:08;;;;;;;23.42;15.18;;;13.20;99.90;;;;;;6111865;23;20026;-86
2022/10/22 05:32:38;;;;;;;23.55;14.30;;;13.20;99.90;;;;;;6087818;23;20038;-86
2022/10/22 05:35:26;;;;;;;24.58;14.43;;;13.20;99.90;;;;;;6088440;23;20415;-87
2022/10/22 05:37:54;;;;;;;24.27;14.55;;;13.40;99.90;;;;;;6090764;23;20026;-86
2022/10/22 05:40:22;;;;;;;25.45;15.85;;;13.30;99.90;;;;;;6088707;23;20435;-87
2022/10/22 05:42:50;;;;;;;20.55;14.23;;;13.30;99.90;;;;;;6114462;23;20460;-86
2022/10/22 05:45:33;;;;;;;22.38;14.68;;;13.20;99.90;;;;;;6093188;23;20028;-86
2022/10/22 05:48:11;;;;;;;21.85;15.30;;;13.30;99.90;;;;;;6091103;23;20384;-86
2022/10/22 05:50:55;;;;;;;25.52;15.00;;;13.30;99.90;;;;;;6092942;23;20025;-87
2022/10/22 05:53:26;;;;;;;28.60;15.30;;;13.30;99.90;;;;;;6090545;23;20041;-85
2022/10/22 05:55:55;;;;;;;24.63;15.02;;;13.30;99.90;;;;;;6089352;23;20028;-87
2022/10/22 05:58:20;;;;;;;24.27;14.95;;;13.20;99.90;;;;;;6113942;23;20013;-87
2022/10/22 06:00:52;;;;;;;27.98;15.48;;;13.30;99.90;;;;;;6114983;23;20091;-87
2022/10/22 06:03:17;;;;;;;23.95;14.63;;;13.30;99.90;;;;;;6091217;23;20052;-86
2022/10/22 06:05:43;;;;;;;25.30;15.65;;;13.30;99.90;;;;;;6090015;23;20017;-87
2022/10/22 06:08:13;;;;;;;23.13;15.43;;;13.20;99.90;;;;;;6115496;23;20179;-87
2022/10/22 06:10:42;;;;;;;27.10;15.88;;;13.30;99.90;;;;;;6111818;23;20594;-87
2022/10/22 06:13:13;;;;;;;28.92;15.70;;;13.40;99.90;;;;;;6089598;23;20013;-86
2022/10/22 06:15:38;;;;;;;26.20;14.90;;;13.20;99.90;;;;;;6090493;23;20088;-86
2022/10/22 06:18:04;;;;;;;26.25;14.50;;;13.30;99.90;;;;;;6115234;23;20119;-87
2022/10/22 06:20:33;;;;;;;28.15;15.05;;;13.30;99.90;;;;;;6091399;23;20019;-86
2022/10/22 06:23:08;;;;;;;31.92;14.98;;;13.30;99.90;;;;;;6094273;23;20021;-86
2022/10/22 06:25:34;;;;;;;19.85;14.18;;;13.40;99.90;;;;;;6088622;23;20028;-86
2022/10/22 06:27:59;;;;;;;23.77;14.02;;;13.40;99.90;;;;;;6092100;23;20013;-86
2022/10/22 06:30:25;;;;;;;22.10;14.02;;;13.40;99.90;;;;;;6090806;23;20451;-87
2022/10/22 06:32:51;;;;;;;22.48;13.90;;;13.40;99.90;;;;;;6116605;23;20021;-86
2022/10/22 06:35:20;;;;;;;23.17;13.93;;;13.40;99.90;;;;;;6090943;23;20335;-86
2022/10/22 06:37:46;;;;;;;25.92;13.98;;;13.30;99.90;;;;;;6090266;23;20080;-86
2022/10/22 06:40:18;;;;;;;22.27;13.73;;;13.50;99.90;;;;;;6089961;23;20070;-86
2022/10/22 06:42:51;;;;;;;23.85;13.70;;;13.50;99.90;;;;;;6092060;23;20047;-86
2022/10/22 06:45:20;;;;;;;22.35;13.07;;;13.50;99.90;;;;;;6089670;23;20411;-85
2022/10/22 06:47:46;;;;;;;23.92;13.13;;;13.60;99.90;;;;;;6091460;23;20056;-86
2022/10/22 06:50:20;;;;;;;25.40;13.18;;;13.50;99.90;;;;;;6089468;23;20021;-86
2022/10/22 06:52:52;;;;;;;20.63;13.18;;;13.70;99.90;;;;;;6091404;23;20025;-87
2022/10/22 06:55:21;;;;;;;21.42;12.32;;;13.80;99.90;;;;;;6088649;23;20013;-86
2022/10/22 06:57:56;;;;;;;21.13;12.70;;;13.70;99.90;;;;;;6116935;23;20013;-88
2022/10/22 07:00:22;;;;;;;22.05;12.73;;;13.90;99.90;;;;;;6115253;23;20013;-85
2022/10/22 07:02:52;;;;;;;24.65;13.38;;;13.90;99.90;;;;;;6114680;23;20024;-87
2022/10/22 07:05:26;;;;;;;21.67;12.93;;;13.90;99.90;;;;;;6090745;23;20025;-86
2022/10/22 07:07:57;;;;;;;24.92;11.93;;;13.90;99.90;;;;;;6092167;23;20362;-86
2022/10/22 07:10:29;;;;;;;29.73;12.57;;;14.10;99.90;;;;;;6112476;23;20104;-87
2022/10/22 07:12:57;;;;;;;22.98;11.77;;;14.10;99.90;;;;;;6114276;23;20061;-87
2022/10/22 07:15:23;;;;;;;17.60;11.30;;;14.10;99.90;;;;;;6091299;23;20447;-87
2022/10/22 07:17:52;;;;;;;22.13;11.13;;;14.30;99.90;;;;;;6090661;23;20024;-86
2022/10/22 07:20:20;;;;;;;19.30;10.88;;;14.30;99.90;;;;;;6114479;23;20294;-86
2022/10/22 07:22:46;;;;;;;18.52;11.00;;;14.30;99.90;;;;;;6089608;23;20077;-86
2022/10/22 07:25:12;;;;;;;17.70;11.68;;;14.40;99.90;;;;;;6089293;23;20040;-86
2022/10/22 07:27:47;;;;;;;19.42;10.75;;;14.30;99.90;;;;;;6091001;23;20092;-86
2022/10/22 07:30:17;;;;;;;17.85;10.18;;;14.40;99.90;;;;;;6092147;23;20030;-85
2022/10/22 07:32:51;;;;;;;17.23;9.60;;;14.30;99.90;;;;;;6092095;23;20049;-86
2022/10/22 07:35:22;;;;;;;20.65;9.98;;;14.50;99.90;;;;;;6114470;23;20017;-87
2022/10/22 07:38:07;;;;;;;16.52;9.32;;;14.40;99.90;;;;;;6115935;23;20136;-85
2022/10/22 07:40:36;;;;;;;17.80;9.20;;;14.50;99.90;;;;;;6111183;23;20444;-87
2022/10/22 07:43:08;;;;;;;17.77;8.95;;;14.50;99.90;;;;;;6115676;23;20021;-87
2022/10/22 07:45:33;;;;;;;16.30;8.80;;;14.60;99.90;;;;;;6090787;23;20032;-87
2022/10/22 07:48:30;;;;;;;17.38;10.35;;;14.50;99.90;;;;;;6115620;23;20021;-85
2022/10/22 07:50:57;;;;;;;14.45;8.43;;;14.60;99.90;;;;;;6113509;23;20045;-86
2022/10/22 07:53:33;;;;;;;14.88;7.90;;;14.80;99.90;;;;;;6092287;23;20013;-87
2022/10/22 07:55:59;;;;;;;16.77;8.23;;;14.80;99.90;;;;;;6114817;23;20350;-86
2022/10/22 07:58:25;;;;;;;13.80;7.50;;;14.90;99.90;;;;;;6092451;23;20020;-87
2022/10/22 08:00:54;;;;;;;15.32;8.02;;;14.80;99.90;;;;;;6090981;23;20025;-88
2022/10/22 08:03:20;;;;;;;14.10;7.40;;;14.70;99.90;;;;;;6115896;23;20017;-86
2022/10/22 08:05:46;;;;;;;14.45;7.20;;;14.80;99.90;;;;;;6115774;23;20116;-87
2022/10/22 08:08:13;;;;;;;14.10;6.95;;;14.80;99.90;;;;;;6116254;23;20382;-86
2022/10/22 08:10:38;;;;;;;14.18;6.80;;;14.80;99.90;;;;;;6087998;23;20013;-86
2022/10/22 08:13:05;;;;;;;15.77;7.03;;;14.90;99.90;;;;;;6091080;23;20168;-88
2022/10/22 08:15:31;;;;;;;14.43;7.03;;;15.00;99.90;;;;;;6114783;23;20226;-87
2022/10/22 08:17:56;;;;;;;12.38;6.32;;;14.80;99.90;;;;;;6091270;23;20049;-87
2022/10/22 08:20:22;;;;;;;14.68;6.75;;;14.80;99.90;;;;;;6091315;23;20451;-86
2022/10/22 08:22:48;;;;;;;13.40;6.90;;;15.10;99.90;;;;;;6090976;23;20097;-87
2022/10/22 08:25:14;;;;;;;15.77;6.70;;;14.90;99.90;;;;;;6088788;23;20490;-88
2022/10/22 08:27:40;;;;;;;14.20;6.05;;;14.90;99.90;;;;;;6091478;23;20018;-87
2022/10/22 08:30:09;;;;;;;11.82;6.25;;;14.90;99.90;;;;;;6091703;23;20017;-86
2022/10/22 08:32:35;;;;;;;13.75;6.18;;;15.00;99.90;;;;;;6092363;23;20100;-88
2022/10/22 08:35:01;;;;;;;15.25;6.35;;;15.20;99.90;;;;;;6090393;23;20131;-87
2022/10/22 08:37:26;;;;;;;12.10;6.30;;;15.20;99.90;;;;;;6110555;23;20136;-88
2022/10/22 08:39:52;;;;;;;11.75;5.93;;;15.40;99.90;;;;;;6083519;23;20022;-88
2022/10/22 08:42:54;;;;;;;18.75;6.65;;;15.50;99.90;;;;;;6086795;23;20359;-87
2022/10/22 08:45:34;;;;;;;10.55;5.75;;;15.50;99.90;;;;;;6110290;23;20076;-88
2022/10/22 08:48:13;;;;;;;9.60;5.45;;;15.70;99.90;;;;;;6085787;23;20432;-87
2022/10/22 08:50:48;;;;;;;14.15;5.93;;;15.70;99.90;;;;;;6086136;23;20021;-87
2022/10/22 08:53:21;;;;;;;14.40;5.22;;;15.70;99.90;;;;;;6087626;23;20529;-87
2022/10/22 08:55:51;;;;;;;11.25;5.43;;;15.70;99.90;;;;;;6082911;23;20455;-87
2022/10/22 08:58:42;;;;;;;14.98;5.53;;;15.60;99.90;;;;;;6111175;23;20017;-86
2022/10/22 09:01:18;;;;;;;20.63;5.70;;;15.60;99.90;;;;;;6109879;23;20014;-86
2022/10/22 09:03:55;;;;;;;15.20;4.95;;;15.80;99.90;;;;;;6086260;23;20141;-87
2022/10/22 09:06:26;;;;;;;12.98;5.25;;;15.80;99.90;;;;;;6085915;23;20049;-86
2022/10/22 09:08:56;;;;;;;10.00;5.10;;;15.80;99.90;;;;;;6109222;23;20018;-87
2022/10/22 09:11:24;;;;;;;9.00;5.10;;;15.80;99.90;;;;;;6084541;23;20017;-86
2022/10/22 09:13:56;;;;;;;13.23;4.72;;;15.90;99.90;;;;;;6113051;23;20370;-87
2022/10/22 09:16:37;;;;;;;12.18;4.95;;;16.00;99.90;;;;;;6109812;23;20018;-85
2022/10/22 09:19:13;;;;;;;16.40;5.25;;;16.00;99.90;;;;;;6087343;23;20096;-86
2022/10/22 09:22:30;;;;;;;15.30;5.20;;;16.10;99.90;;;;;;6087105;23;20088;-88
2022/10/22 09:25:34;;;;;;;13.57;4.55;;;16.20;99.90;;;;;;6023711;23;20092;-87
2022/10/22 09:28:03;;;;;;;12.98;4.85;;;16.30;99.90;;;;;;6086252;23;20083;-87
2022/10/22 09:30:39;;;;;;;11.82;4.80;;;16.40;99.90;;;;;;6086863;23;20014;-86
2022/10/22 09:33:37;;;;;;;13.95;4.85;;;16.30;99.90;;;;;;6085781;23;20022;-86
2022/10/22 09:36:06;;;;;;;11.40;4.63;;;16.40;99.90;;;;;;6030795;23;20089;-87
2022/10/22 09:38:47;;;;;;;13.27;4.78;;;16.70;99.90;;;;;;6109937;23;20024;-86
2022/10/22 09:41:13;;;;;;;12.40;4.60;;;16.50;99.90;;;;;;6084735;23;20010;-87
2022/10/22 09:43:39;;;;;;;8.02;3.78;;;16.50;99.90;;;;;;6085157;23;20017;-86
2022/10/22 09:46:12;;;;;;;10.10;4.55;;;16.50;99.90;;;;;;6085259;23;20014;-87
2022/10/22 09:48:46;;;;;;;12.75;4.20;;;16.60;99.90;;;;;;6111356;23;20068;-86
2022/10/22 09:51:23;;;;;;;9.63;4.30;;;16.50;99.90;;;;;;6086690;23;20018;-86
2022/10/22 09:53:59;;;;;;;10.50;4.43;;;16.40;99.90;;;;;;6084595;23;20549;-87
2022/10/22 09:56:35;;;;;;;9.15;3.60;;;16.40;99.90;;;;;;6107632;23;20073;-86
2022/10/22 09:59:03;;;;;;;11.50;4.03;;;16.50;99.90;;;;;;6085090;23;20101;-87
2022/10/22 10:01:32;;;;;;;10.45;4.25;;;16.50;99.90;;;;;;6085666;23;20091;-86
2022/10/22 10:04:08;;;;;;;13.48;4.15;;;16.40;99.90;;;;;;6110013;23;20018;-86
2022/10/22 10:06:41;;;;;;;11.43;4.43;;;16.40;99.90;;;;;;6086451;23;20014;-87
2022/10/22 10:09:20;;;;;;;14.75;4.13;;;16.40;99.90;;;;;;6081634;23;20029;-86
2022/10/22 10:12:20;;;;;;;14.77;4.88;;;16.20;99.90;;;;;;6084888;23;20546;-86
2022/10/22 10:15:16;;;;;;;11.02;4.63;;;16.30;99.90;;;;;;6085825;23;20033;-87
2022/10/22 10:17:54;;;;;;;13.38;4.80;;;16.20;99.90;;;;;;6110804;23;20016;-86
2022/10/22 10:20:23;;;;;;;9.77;4.47;;;16.20;99.90;;;;;;6085580;23;20018;-86
2022/10/22 10:23:07;;;;;;;13.88;5.38;;;16.20;99.90;;;;;;6085681;23;20146;-86
2022/10/22 10:26:14;;;;;;;13.17;5.20;;;16.20;99.90;;;;;;6082590;23;20040;-86
2022/10/22 10:28:45;;;;;;;13.38;5.40;;;16.30;99.90;;;;;;5945671;23;20020;-86
2022/10/22 10:31:39;;;;;;;13.00;5.15;;;16.30;99.90;;;;;;6091282;23;20101;-86
2022/10/22 10:34:16;;;;;;;14.32;6.13;;;16.40;99.90;;;;;;6085400;23;20018;-86
2022/10/22 10:37:12;;;;;;;12.70;5.13;;;16.60;99.90;;;;;;6110704;23;20070;-86
2022/10/22 10:39:53;;;;;;;12.77;5.45;;;16.80;99.90;;;;;;6083534;23;20018;-86
2022/10/22 10:42:43;;;;;;;12.43;5.47;;;16.90;99.90;;;;;;6084364;23;20025;-86
2022/10/22 10:45:19;;;;;;;15.88;5.57;;;17.00;99.90;;;;;;6083359;23;20274;-87
2022/10/22 10:48:12;;;;;;;10.85;5.05;;;17.10;99.90;;;;;;6110716;23;20022;-86
2022/10/22 10:50:48;;;;;;;12.48;5.50;;;17.10;99.90;;;;;;6084935;23;20116;-87
2022/10/22 10:53:28;;;;;;;14.00;5.22;;;17.10;99.90;;;;;;6086006;23;20444;-86
2022/10/22 10:56:45;;;;;;;13.75;5.05;;;16.90;99.90;;;;;;6108508;23;20022;-85
2022/10/22 10:59:41;;;;;;;14.15;5.07;;;16.80;99.90;;;;;;6028517;23;20014;-86
2022/10/22 11:02:16;;;;;;;10.55;4.75;;;16.60;99.90;;;;;;6084892;23;20478;-87
2022/10/22 11:04:57;;;;;;;13.93;5.32;;;16.60;99.90;;;;;;6084904;23;20010;-87
2022/10/22 11:07:30;;;;;;;13.98;5.20;;;16.40;99.90;;;;;;6086187;23;20094;-87
2022/10/22 11:10:08;;;;;;;14.20;4.70;;;16.40;99.90;;;;;;6084253;23;20014;-86
2022/10/22 11:12:38;;;;;;;8.52;5.07;;;16.30;99.90;;;;;;6084241;23;20018;-86
2022/10/22 11:15:25;;;;;;;13.85;5.85;;;16.40;99.90;;;;;;6084929;23;20068;-87
2022/10/22 11:17:54;;;;;;;15.68;5.90;;;16.40;99.90;;;;;;6086919;23;20014;-86
2022/10/22 11:20:42;;;;;;;18.92;6.00;;;16.20;99.90;;;;;;6109665;23;20089;-86
2022/10/22 11:23:17;;;;;;;11.75;6.22;;;16.10;99.90;;;;;;6086342;23;20654;-87
2022/10/22 11:25:48;;;;;;;10.98;6.00;;;16.10;99.90;;;;;;6109187;23;20062;-87
2022/10/22 11:28:20;;;;;;;11.43;6.10;;;16.00;99.90;;;;;;6111811;23;20025;-86
2022/10/22 11:30:52;;;;;;;16.40;6.30;;;16.00;99.90;;;;;;6112232;23;20437;-87
2022/10/22 11:33:27;;;;;;;15.40;6.72;;;16.10;99.90;;;;;;6088990;23;20014;-86
2022/10/22 11:36:09;;;;;;;11.73;6.95;;;16.40;99.90;;;;;;6112358;23;20045;-87
2022/10/22 11:38:37;;;;;;;13.30;6.95;;;16.40;99.90;;;;;;6086729;23;20014;-87
2022/10/22 11:41:17;;;;;;;14.80;6.85;;;16.70;99.90;;;;;;6111895;23;20018;-87
2022/10/22 11:44:20;;;;;;;10.77;6.03;;;16.80;99.90;;;;;;6088646;23;20254;-87
2022/10/22 11:47:07;;;;;;;14.10;6.60;;;16.90;99.90;;;;;;6087857;23;20022;-86
2022/10/22 11:49:44;;;;;;;11.32;6.18;;;17.00;99.90;;;;;;6088373;23;20025;-87
2022/10/22 11:52:30;;;;;;;11.68;6.43;;;17.40;99.90;;;;;;6088493;23;20018;-87
2022/10/22 11:55:00;;;;;;;14.77;6.20;;;17.20;99.90;;;;;;6089678;23;20045;-87
2022/10/22 11:57:36;;;;;;;11.55;5.82;;;17.20;99.90;;;;;;6111147;23;20060;-87
2022/10/22 12:00:30;;;;;;;13.65;5.90;;;17.10;99.90;;;;;;6087672;23;20485;-87
2022/10/22 12:03:23;;;;;;;14.55;5.40;;;17.10;99.90;;;;;;6088691;23;20021;-87
2022/10/22 12:06:18;;;;;;;11.77;5.75;;;17.00;99.90;;;;;;6088321;23;20022;-87
2022/10/22 12:08:51;;;;;;;11.55;5.18;;;17.00;99.90;;;;;;6088020;23;20368;-87
2022/10/22 12:11:36;;;;;;;13.77;5.22;;;16.80;99.90;;;;;;6086658;23;20537;-87
2022/10/22 12:14:26;;;;;;;14.10;6.00;;;16.70;99.90;;;;;;6111178;23;20018;-86
2022/10/22 12:16:56;;;;;;;8.90;5.50;;;16.70;99.90;;;;;;6086384;23;20296;-87
2022/10/22 12:19:22;;;;;;;12.10;5.75;;;16.70;99.90;;;;;;6087409;23;20494;-86
2022/10/22 12:22:09;;;;;;;13.27;5.55;;;16.60;99.90;;;;;;6085040;23;20805;-86
2022/10/22 12:24:41;;;;;;;13.30;5.90;;;17.00;99.90;;;;;;6084369;23;20056;-87
2022/10/22 12:27:24;;;;;;;12.68;5.40;;;16.80;99.90;;;;;;6110107;23;20036;-86
2022/10/22 12:30:00;;;;;;;14.27;5.43;;;16.80;99.90;;;;;;6085776;23;20084;-86
2022/10/22 12:32:40;;;;;;;13.25;5.38;;;17.00;99.90;;;;;;6085074;23;20294;-87
2022/10/22 12:35:22;;;;;;;13.65;5.50;;;16.90;99.90;;;;;;6086172;23;20425;-88
2022/10/22 12:37:54;;;;;;;14.73;5.65;;;16.80;99.90;;;;;;6084906;23;20028;-86
2022/10/22 12:40:29;;;;;;;8.70;5.10;;;17.10;99.90;;;;;;6084682;23;20028;-87
2022/10/22 12:43:15;;;;;;;11.93;5.18;;;16.90;99.90;;;;;;6086232;23;20598;-86
2022/10/22 12:45:49;;;;;;;13.73;5.35;;;17.10;99.90;;;;;;6110347;23;20014;-87
2022/10/22 12:48:24;;;;;;;11.02;5.40;;;17.20;99.90;;;;;;6086642;23;20018;-86
2022/10/22 12:50:57;;;;;;;9.88;4.60;;;17.30;99.90;;;;;;6085555;23;20087;-86
2022/10/22 12:53:54;;;;;;;8.98;4.50;;;17.50;99.90;;;;;;6110297;23;20076;-86
2022/10/22 12:56:26;;;;;;;9.57;3.97;;;17.30;99.90;;;;;;6108568;23;20074;-86
2022/10/22 12:58:57;;;;;;;11.93;4.53;;;17.60;99.90;;;;;;6109599;23;20010;-87
2022/10/22 13:01:27;;;;;;;7.43;3.95;;;18.00;99.90;;;;;;6086792;23;20052;-87
2022/10/22 13:04:06;;;;;;;7.50;4.63;;;18.20;99.90;;;;;;6087308;23;20328;-87
2022/10/22 13:06:34;;;;;;;8.63;3.65;;;18.30;99.90;;;;;;6111150;23;20499;-86
2022/10/22 13:09:28;;;;;;;10.50;3.75;;;18.20;99.90;;;;;;6085704;23;20338;-87
2022/10/22 13:12:13;;;;;;;;;;;;;;;;;;;;;
2022/10/22 13:14:45;;;;;;;8.68;3.08;;;17.90;99.90;;;;;;6112770;23;20080;-87
2022/10/22 13:17:18;;;;;;;11.52;3.58;;;17.90;99.90;;;;;;6111484;23;20108;-87